Terminal Aerodrome Forecast
Issued by NWS Jackson, MS

Home | Current Version | Previous Version | Text Only | Print | Product List | Glossary On
Versions: 1 2 3 4 5 6 7 8 9 10 11 12 13 14 15 16 17 18
000
FTUS44 KJAN 220500
TAFMEI
TAF
KMEI 220540Z 2206/2306 00000KT P6SM SKC
     FM220800 02003KT 3SM BR SKC
     FM221000 02003KT 1SM BR SCT002
     FM221200 08005KT P6SM SCT050 BKN120
     FM221900 12007KT P6SM VCTS SCT050CB BKN100
     FM230000 VRB03KT P6SM SCT100=

USA.gov is the U.S. government's official web portal to all federal, state and local government web resources and services.